Česky Dansk Deutsch English Español Suomi Français Magyar Italiano Nederlands norsk Polski Português svenska Türkçe

 

Het Weer

Overberg (Zuid Afrika)

15:00, 21 augustus 2016 (GMT)

NWNNE
WE
SWSSE
Home            
Overberg Cape Town, Cape Town International Airport Mossel Bay Cape Saint Blaize George, George Airport Oudtshoorn Langebaanweg Plettenberg Bay Fraserburg Beaufort West Calvinia Vredendal Graaff Reinet Port Elizabeth, Port E Apt De Aar De Aar Middelburg Springbok Queenstown Upington, Up-Apt East London, East London Airport Aliwal North Alexander Bay Kimberley, Kim-Apt

Om een weerknop op uw website of weblog te plaatsen, copieer onderstaande code en plak die in uw pagina. In het eerste vakje staat HTML-code, in het tweede vakje UBB-code.


Add to Google

Details

Wind speed:4 bf, 11 kn, 5.7 m/s, 12.7 miles/h, 20.4 km/h
Wind direction:NW, 320°
Het Weer:moderate
moderate
moderate
Temperature:12°C, 54°F
Dew-point:8°C, 46°F
Atmospheric pressure:1015 hPa, 761.3 mmHg, 29.97 inHg, 1.002 atm
Relative humidity:76.5 %
METAR:FAOB 211500Z AUTO 32011KT 12/08 Q1015

Snelkoppelingen

Actuele weersinformatie van de hele wereld. Voeg locaties toe met het plus (+) symbool. Deze snelkoppelingen kunnen worden toegevoegd aan Google.

Lid van de Technetium groep

website free tracking
StatCounter NetStat W3C Validator

20-07-2018 02:46:12
astro.technetium.be money.technetium.be phote.technetium.be tafeltennistafel.technetium.be www.ligfiets.net